Time;durP1;ratioP1;P1;durP2;ratioP2;P2;SDS_P1;SDS_P2;PMS_P1;PMS_P2;Temp;Humidity;BMP_temperature;BMP_pressure;BME280_temperature;BME280_humidity;BME280_pressure;Samples;Min_cycle;Max_cycle;Signal;HPM_P1;HPM_P2
2023/12/14 00:01:10;;;;;;;;;;;;;;;23.40;33.74;100653.00;4232706;27;20298;-58
2023/12/14 00:03:11;;;;;;;;;;;;;;;23.43;33.81;100663.44;4232526;28;20382;-59
2023/12/14 00:05:13;;;;;;;;;;;;;;;23.47;33.54;100676.59;4232721;28;20348;-58
2023/12/14 00:07:16;;;;;;;;;;;;;;;23.45;33.44;100674.88;4232767;28;20014;-58
2023/12/14 00:09:17;;;;;;;;;;;;;;;23.45;33.82;100677.56;4232292;28;19919;-58
2023/12/14 00:11:19;;;;;;;;;;;;;;;23.45;33.73;100682.06;4232274;28;19972;-58
2023/12/14 00:13:20;;;;;;;;;;;;;;;23.42;33.62;100685.06;4232522;28;19926;-58
2023/12/14 00:15:22;;;;;;;;;;;;;;;23.40;33.64;100679.84;4232590;27;19927;-58
2023/12/14 00:17:23;;;;;;;;;;;;;;;23.39;33.79;100688.88;4232304;28;19929;-58
2023/12/14 00:19:25;;;;;;;;;;;;;;;23.40;33.62;100689.69;4232166;28;20014;-57
2023/12/14 00:21:26;;;;;;;;;;;;;;;23.39;33.57;100699.59;4232519;28;19946;-56
2023/12/14 00:23:28;;;;;;;;;;;;;;;23.40;33.59;100708.50;4231753;28;19923;-57
2023/12/14 00:25:29;;;;;;;;;;;;;;;23.40;33.48;100703.97;4232201;28;19920;-57
2023/12/14 00:27:31;;;;;;;;;;;;;;;23.41;33.49;100707.50;4231903;28;20006;-58
2023/12/14 00:29:32;;;;;;;;;;;;;;;23.41;33.53;100705.66;4232274;28;19927;-58
2023/12/14 00:31:34;;;;;;;;;;;;;;;23.43;33.64;100721.63;4232014;28;20021;-58
2023/12/14 00:33:35;;;;;;;;;;;;;;;23.41;33.45;100713.72;4232122;28;20338;-58
2023/12/14 00:35:37;;;;;;;;;;;;;;;23.40;33.35;100717.41;4232193;28;19927;-57
2023/12/14 00:37:39;;;;;;;;;;;;;;;23.38;33.69;100724.72;4231932;28;19930;-57
2023/12/14 00:39:40;;;;;;;;;;;;;;;23.35;33.22;100727.69;4232107;28;19927;-58
2023/12/14 00:41:47;;;;;;;;;;;;;;;23.33;33.68;100735.03;4232130;28;20018;-57
2023/12/14 00:43:48;;;;;;;;;;;;;;;23.32;33.39;100737.84;4232131;28;20292;-57
2023/12/14 00:45:49;;;;;;;;;;;;;;;23.31;33.57;100738.81;4232120;28;20032;-57
2023/12/14 00:47:51;;;;;;;;;;;;;;;23.30;33.46;100740.66;4231868;28;20006;-58
2023/12/14 00:49:53;;;;;;;;;;;;;;;23.31;33.75;100758.47;4230568;28;19920;-58
2023/12/14 00:51:55;;;;;;;;;;;;;;;23.32;33.51;100764.69;4231633;28;20019;-58
2023/12/14 00:53:56;;;;;;;;;;;;;;;23.33;33.32;100761.00;4231761;28;20301;-58
2023/12/14 00:55:57;;;;;;;;;;;;;;;23.32;33.45;100767.34;4231853;28;20021;-58
2023/12/14 00:57:59;;;;;;;;;;;;;;;23.31;33.31;100769.22;4231859;28;19924;-58
2023/12/14 01:00:01;;;;;;;;;;;;;;;23.30;33.35;100778.25;4231701;28;19920;-58
2023/12/14 01:02:02;;;;;;;;;;;;;;;23.29;33.79;100779.22;4231652;28;20323;-58
2023/12/14 01:04:04;;;;;;;;;;;;;;;23.29;33.54;100785.44;4231625;27;20324;-58
2023/12/14 01:06:07;;;;;;;;;;;;;;;23.28;33.33;100786.44;4231366;27;19920;-58
2023/12/14 01:08:08;;;;;;;;;;;;;;;23.30;33.62;100791.66;4231812;28;19970;-58
2023/12/14 01:10:10;;;;;;;;;;;;;;;23.32;33.47;100788.81;4231685;28;19919;-58
2023/12/14 01:12:11;;;;;;;;;;;;;;;23.34;33.38;100802.97;4231448;28;19966;-58
2023/12/14 01:14:13;;;;;;;;;;;;;;;23.34;33.85;100793.06;4231666;28;20303;-58
2023/12/14 01:16:14;;;;;;;;;;;;;;;23.35;33.54;100793.94;4231270;28;20408;-57
2023/12/14 01:18:17;;;;;;;;;;;;;;;23.34;33.43;100803.81;4231292;28;19920;-57
2023/12/14 01:20:18;;;;;;;;;;;;;;;23.35;33.66;100805.50;4231298;28;19926;-58
2023/12/14 01:22:20;;;;;;;;;;;;;;;23.33;33.53;100806.63;4231351;28;19947;-58
2023/12/14 01:24:21;;;;;;;;;;;;;;;23.32;33.76;100812.97;4231053;28;19945;-57
2023/12/14 01:26:23;;;;;;;;;;;;;;;23.29;33.76;100814.09;4231434;28;19966;-57
2023/12/14 01:28:24;;;;;;;;;;;;;;;23.28;33.37;100817.78;4231263;28;19923;-55
2023/12/14 01:30:26;;;;;;;;;;;;;;;23.29;33.52;100823.03;4230109;28;19923;-58
2023/12/14 01:32:27;;;;;;;;;;;;;;;23.30;33.36;100829.22;4231219;28;20006;-57
2023/12/14 01:34:29;;;;;;;;;;;;;;;23.32;33.36;100835.31;4231330;28;19939;-58
2023/12/14 01:36:31;;;;;;;;;;;;;;;23.32;33.35;100829.94;4231016;28;20386;-58
2023/12/14 01:38:32;;;;;;;;;;;;;;;23.34;33.61;100836.00;4231290;28;20367;-57
2023/12/14 01:40:33;;;;;;;;;;;;;;;23.35;33.68;100842.25;4230958;28;19920;-58
2023/12/14 01:42:35;;;;;;;;;;;;;;;23.33;33.46;100844.19;4231230;28;20401;-57
2023/12/14 01:44:37;;;;;;;;;;;;;;;23.32;33.38;100856.78;4230863;28;19962;-57
2023/12/14 01:46:38;;;;;;;;;;;;;;;23.29;33.63;100857.91;4231179;28;19923;-55
2023/12/14 01:48:40;;;;;;;;;;;;;;;23.26;33.49;100855.47;4231020;28;19962;-56
2023/12/14 01:50:42;;;;;;;;;;;;;;;23.25;33.17;100858.31;4230847;28;20014;-57
2023/12/14 01:52:43;;;;;;;;;;;;;;;23.25;33.33;100864.50;4230695;28;19923;-56
2023/12/14 01:54:45;;;;;;;;;;;;;;;23.25;33.58;100872.56;4230920;28;19923;-58
2023/12/14 01:56:47;;;;;;;;;;;;;;;23.26;33.72;100876.94;4230979;28;19919;-58
2023/12/14 01:58:48;;;;;;;;;;;;;;;23.28;33.19;100880.34;4230744;28;20290;-58
2023/12/14 02:00:53;;;;;;;;;;;;;;;23.32;33.29;100885.44;4229247;28;20328;-57
2023/12/14 02:02:54;;;;;;;;;;;;;;;23.34;33.54;100892.38;4230805;28;20022;-57
2023/12/14 02:04:56;;;;;;;;;;;;;;;23.36;33.35;100906.50;4230389;28;19937;-57
2023/12/14 02:06:58;;;;;;;;;;;;;;;23.36;33.22;100900.31;4230572;28;19949;-58
2023/12/14 02:08:59;;;;;;;;;;;;;;;23.34;33.62;100903.09;4230906;28;19947;-58
2023/12/14 02:11:01;;;;;;;;;;;;;;;23.32;33.67;100912.28;4230787;28;19920;-58
2023/12/14 02:13:03;;;;;;;;;;;;;;;23.30;33.78;100925.84;4230624;28;19920;-58
2023/12/14 02:15:05;;;;;;;;;;;;;;;23.28;33.71;100912.56;4230565;28;20010;-61
2023/12/14 02:17:06;;;;;;;;;;;;;;;23.29;33.74;100919.63;4230466;28;19924;-58
2023/12/14 02:19:08;;;;;;;;;;;;;;;23.32;33.27;100923.00;4230489;28;19946;-58
2023/12/14 02:21:09;;;;;;;;;;;;;;;23.34;33.67;100921.06;4230478;28;19924;-58
2023/12/14 02:23:11;;;;;;;;;;;;;;;23.37;33.54;100923.47;4230451;28;20331;-58
2023/12/14 02:25:13;;;;;;;;;;;;;;;23.38;33.36;100931.41;4230516;28;20394;-57
2023/12/14 02:27:14;;;;;;;;;;;;;;;23.38;33.35;100931.41;4230722;28;19963;-57
2023/12/14 02:29:16;;;;;;;;;;;;;;;23.37;33.29;100940.44;4230496;28;19959;-58
2023/12/14 02:31:18;;;;;;;;;;;;;;;23.32;33.13;100934.63;4230627;28;19920;-57
2023/12/14 02:33:20;;;;;;;;;;;;;;;23.38;33.65;100938.56;4230362;28;20265;-58
2023/12/14 02:35:22;;;;;;;;;;;;;;;23.36;33.30;100941.41;4230374;28;20010;-57
2023/12/14 02:37:24;;;;;;;;;;;;;;;23.35;33.46;100949.59;4229260;28;19924;-57
2023/12/14 02:39:25;;;;;;;;;;;;;;;23.36;33.55;100945.94;4230357;28;19930;-58
2023/12/14 02:41:27;;;;;;;;;;;;;;;23.37;33.31;100953.00;4230497;28;19995;-58
2023/12/14 02:43:28;;;;;;;;;;;;;;;23.37;33.60;100953.00;4229001;28;20330;-58
2023/12/14 02:45:30;;;;;;;;;;;;;;;23.40;33.45;100953.59;4230432;28;19920;-57
2023/12/14 02:47:31;;;;;;;;;;;;;;;23.43;33.26;100960.53;4229988;28;19920;-57
2023/12/14 02:49:33;;;;;;;;;;;;;;;23.44;33.32;100964.91;4230296;28;19923;-58
2023/12/14 02:51:35;;;;;;;;;;;;;;;23.45;33.32;100962.09;4230515;28;19920;-56
2023/12/14 02:53:36;;;;;;;;;;;;;;;23.43;33.34;100971.25;4230574;28;20279;-57
2023/12/14 02:55:38;;;;;;;;;;;;;;;23.41;33.37;100970.53;4230517;28;19919;-57
2023/12/14 02:57:39;;;;;;;;;;;;;;;23.42;33.46;100969.56;4230325;28;19920;-57
2023/12/14 02:59:41;;;;;;;;;;;;;;;23.39;33.65;100972.50;4230335;28;19927;-55
2023/12/14 03:01:42;;;;;;;;;;;;;;;23.38;33.65;100971.66;4230391;28;19920;-56
2023/12/14 03:03:44;;;;;;;;;;;;;;;23.43;33.62;100964.06;4230041;28;20030;-57
2023/12/14 03:05:45;;;;;;;;;;;;;;;23.45;33.44;100970.16;4230411;28;19923;-57
2023/12/14 03:07:47;;;;;;;;;;;;;;;23.48;33.36;100977.06;4230281;28;20344;-56
2023/12/14 03:09:49;;;;;;;;;;;;;;;23.48;33.25;100987.81;4230391;28;19919;-57
2023/12/14 03:11:50;;;;;;;;;;;;;;;23.48;33.29;100987.81;4230558;28;19920;-58
2023/12/14 03:13:52;;;;;;;;;;;;;;;23.49;33.48;100988.66;4233603;28;19926;-55
2023/12/14 03:15:53;;;;;;;;;;;;;;;23.45;33.48;100997.00;4233428;28;19951;-57
2023/12/14 03:17:55;;;;;;;;;;;;;;;23.43;33.25;100998.94;4233139;28;19955;-57
2023/12/14 03:19:56;;;;;;;;;;;;;;;23.42;33.32;100999.09;4233255;28;20314;-57
2023/12/14 03:21:58;;;;;;;;;;;;;;;23.41;33.56;101003.59;4233375;28;20321;-57
2023/12/14 03:23:59;;;;;;;;;;;;;;;23.40;33.56;101009.97;4233106;28;19920;-56
2023/12/14 03:26:01;;;;;;;;;;;;;;;23.41;33.31;101017.00;4233190;28;19946;-57
2023/12/14 03:28:03;;;;;;;;;;;;;;;23.43;33.63;101023.09;4233316;28;19920;-57
2023/12/14 03:30:07;;;;;;;;;;;;;;;23.47;33.64;101022.84;4233104;27;19942;-57
2023/12/14 03:32:09;;;;;;;;;;;;;;;23.49;33.51;101026.22;4233037;28;19919;-57
2023/12/14 03:34:12;;;;;;;;;;;;;;;23.49;33.34;101037.84;4233184;28;19926;-57
2023/12/14 03:36:13;;;;;;;;;;;;;;;23.48;33.14;101036.13;4233345;28;20377;-56
2023/12/14 03:38:15;;;;;;;;;;;;;;;23.47;33.50;101041.66;4232861;28;19966;-57
2023/12/14 03:40:16;;;;;;;;;;;;;;;23.46;33.36;101035.41;4233143;28;19968;-57
2023/12/14 03:42:18;;;;;;;;;;;;;;;23.44;33.19;101032.84;4233239;28;20301;-57
2023/12/14 03:44:19;;;;;;;;;;;;;;;23.44;33.52;101045.44;4233070;28;19920;-57
2023/12/14 03:46:21;;;;;;;;;;;;;;;23.42;33.37;101047.41;4232867;28;20270;-57
2023/12/14 03:48:22;;;;;;;;;;;;;;;23.44;33.27;101059.69;4232972;28;19920;-57
2023/12/14 03:50:24;;;;;;;;;;;;;;;23.47;33.20;101068.47;4232795;28;20378;-57
2023/12/14 03:52:27;;;;;;;;;;;;;;;23.47;33.09;101069.31;4232887;28;19919;-58
2023/12/14 03:54:29;;;;;;;;;;;;;;;23.50;33.58;101071.75;4232832;28;19964;-57
2023/12/14 03:56:31;;;;;;;;;;;;;;;23.51;33.29;101075.28;4232905;28;19943;-56
2023/12/14 03:58:32;;;;;;;;;;;;;;;23.50;33.54;101077.13;4231703;28;19934;-57
2023/12/14 04:00:34;;;;;;;;;;;;;;;23.49;33.17;101077.25;4232352;28;19919;-57
2023/12/14 04:02:36;;;;;;;;;;;;;;;23.47;33.12;101082.75;4232766;28;20289;-57
2023/12/14 04:04:38;;;;;;;;;;;;;;;23.45;33.58;101084.69;4232704;28;19920;-57
2023/12/14 04:06:39;;;;;;;;;;;;;;;23.46;33.23;101091.78;4232678;28;19919;-56
2023/12/14 04:08:41;;;;;;;;;;;;;;;23.44;33.27;101091.91;4232687;28;20266;-57
2023/12/14 04:10:43;;;;;;;;;;;;;;;23.44;33.20;101091.06;4232745;28;20374;-56
2023/12/14 04:12:44;;;;;;;;;;;;;;;23.44;33.50;101105.34;4232579;28;19923;-56
2023/12/14 04:14:46;;;;;;;;;;;;;;;23.47;33.35;101096.16;4232393;28;20232;-56
2023/12/14 04:16:47;;;;;;;;;;;;;;;23.51;33.48;101110.19;4232543;28;20318;-56
2023/12/14 04:18:49;;;;;;;;;;;;;;;23.52;33.36;101101.16;4232395;28;19988;-56
2023/12/14 04:20:51;;;;;;;;;;;;;;;23.52;33.24;101111.91;4232438;28;19924;-56
2023/12/14 04:22:52;;;;;;;;;;;;;;;23.53;33.02;101118.97;4231650;28;20337;-56
2023/12/14 04:24:54;;;;;;;;;;;;;;;23.51;33.12;101129.81;4232449;28;19919;-56
2023/12/14 04:26:55;;;;;;;;;;;;;;;23.49;33.08;101120.19;4232167;28;19959;-56
2023/12/14 04:28:57;;;;;;;;;;;;;;;23.46;33.07;101129.34;4231974;28;20402;-56
2023/12/14 04:30:58;;;;;;;;;;;;;;;23.47;33.56;101140.97;4232160;28;19931;-56
2023/12/14 04:33:00;;;;;;;;;;;;;;;23.46;33.44;101134.72;4232336;28;19927;-56
2023/12/14 04:35:02;;;;;;;;;;;;;;;23.45;33.26;101144.63;4232253;28;19973;-56
2023/12/14 04:37:03;;;;;;;;;;;;;;;23.49;33.41;101147.03;4231874;28;20401;-57
2023/12/14 04:39:05;;;;;;;;;;;;;;;23.50;33.36;101160.34;4232315;28;19919;-56
2023/12/14 04:41:06;;;;;;;;;;;;;;;23.53;33.46;101168.13;4232391;28;19988;-56
2023/12/14 04:43:08;;;;;;;;;;;;;;;23.53;33.35;101168.13;4232037;28;19927;-56
2023/12/14 04:45:09;;;;;;;;;;;;;;;23.52;33.21;101166.41;4231731;28;20378;-55
2023/12/14 04:47:11;;;;;;;;;;;;;;;23.54;33.34;101177.06;4232111;28;19919;-55
2023/12/14 04:49:13;;;;;;;;;;;;;;;23.52;33.35;101179.00;4231938;28;20399;-57
2023/12/14 04:51:14;;;;;;;;;;;;;;;23.49;32.96;101190.00;4231930;28;19919;-56
2023/12/14 04:53:16;;;;;;;;;;;;;;;23.47;33.17;101198.19;4231960;28;19926;-56
2023/12/14 04:55:17;;;;;;;;;;;;;;;23.47;33.49;101208.06;4231941;28;19977;-56
2023/12/14 04:57:19;;;;;;;;;;;;;;;23.47;33.43;101208.91;4231642;28;19927;-57
2023/12/14 04:59:21;;;;;;;;;;;;;;;23.50;33.11;101206.00;4231686;28;19919;-56
2023/12/14 05:01:22;;;;;;;;;;;;;;;23.52;33.10;101211.22;4231734;28;19919;-59
2023/12/14 05:03:24;;;;;;;;;;;;;;;23.55;33.08;101217.19;4230628;28;19923;-58
2023/12/14 05:05:26;;;;;;;;;;;;;;;23.54;33.38;101220.84;4230550;28;19973;-58
2023/12/14 05:07:28;;;;;;;;;;;;;;;23.54;33.09;101226.22;4231608;28;19978;-58
2023/12/14 05:09:29;;;;;;;;;;;;;;;23.55;33.16;101229.75;4231665;28;19927;-58
2023/12/14 05:11:31;;;;;;;;;;;;;;;23.53;33.20;101237.09;4231683;28;19963;-58
2023/12/14 05:13:33;;;;;;;;;;;;;;;23.51;33.36;101233.69;4231224;27;19920;-58
2023/12/14 05:15:34;;;;;;;;;;;;;;;23.48;33.41;101237.47;4231632;28;19923;-58
2023/12/14 05:17:36;;;;;;;;;;;;;;;23.48;33.47;101239.31;4231353;28;19935;-58
2023/12/14 05:19:38;;;;;;;;;;;;;;;23.49;33.18;101246.38;4231254;28;19920;-58
2023/12/14 05:21:40;;;;;;;;;;;;;;;23.51;33.24;101239.88;4231599;28;20002;-58
2023/12/14 05:23:41;;;;;;;;;;;;;;;23.53;33.20;101243.31;4229929;28;20325;-58
2023/12/14 05:25:44;;;;;;;;;;;;;;;23.58;33.17;101256.34;4231082;28;19958;-58
2023/12/14 05:27:45;;;;;;;;;;;;;;;23.59;33.02;101260.75;4231119;28;19966;-58
2023/12/14 05:29:47;;;;;;;;;;;;;;;23.58;33.21;101262.56;4231432;28;19926;-57
2023/12/14 05:31:48;;;;;;;;;;;;;;;23.57;33.31;101268.94;4231097;28;20006;-58
2023/12/14 05:33:50;;;;;;;;;;;;;;;23.53;33.15;101274.69;4231389;28;19920;-58
2023/12/14 05:35:52;;;;;;;;;;;;;;;23.51;33.22;101274.78;4230517;28;19963;-58
2023/12/14 05:37:53;;;;;;;;;;;;;;;23.49;32.98;101275.91;4230109;28;19932;-58
2023/12/14 05:39:55;;;;;;;;;;;;;;;23.48;33.12;101280.44;4231301;28;19919;-57
2023/12/14 05:41:56;;;;;;;;;;;;;;;23.49;33.12;101283.94;4230950;28;19926;-58
2023/12/14 05:43:58;;;;;;;;;;;;;;;23.52;33.29;101291.75;4231256;28;20059;-57
2023/12/14 05:46:00;;;;;;;;;;;;;;;23.55;32.90;101287.00;4230978;28;19919;-58
2023/12/14 05:48:01;;;;;;;;;;;;;;;23.57;32.89;101303.84;4230873;28;19962;-57
2023/12/14 05:50:04;;;;;;;;;;;;;;;23.56;33.09;101288.72;4230976;28;20384;-59
2023/12/14 05:52:05;;;;;;;;;;;;;;;23.57;33.07;101290.44;4230862;28;20398;-58
2023/12/14 05:54:07;;;;;;;;;;;;;;;23.57;32.86;101294.91;4230906;28;19920;-58
2023/12/14 05:56:09;;;;;;;;;;;;;;;23.55;33.18;101295.06;4230778;28;20361;-57
2023/12/14 05:58:10;;;;;;;;;;;;;;;23.51;33.03;101300.78;4231099;28;19924;-57
2023/12/14 06:00:12;;;;;;;;;;;;;;;23.49;33.01;101300.94;4230902;28;19951;-57
2023/12/14 06:02:14;;;;;;;;;;;;;;;23.48;33.39;101304.59;4230639;28;19919;-55
2023/12/14 06:04:15;;;;;;;;;;;;;;;23.48;33.25;101312.63;4230922;28;19920;-56
2023/12/14 06:06:17;;;;;;;;;;;;;;;23.50;32.94;101315.19;4230829;28;20350;-57
2023/12/14 06:08:19;;;;;;;;;;;;;;;23.53;32.90;101309.59;4230822;28;20026;-57
2023/12/14 06:10:21;;;;;;;;;;;;;;;23.55;32.85;101324.59;4229244;28;19926;-57
2023/12/14 06:12:22;;;;;;;;;;;;;;;23.54;33.15;101330.09;4230643;28;20325;-57
2023/12/14 06:14:24;;;;;;;;;;;;;;;23.54;32.84;101335.47;4230526;28;19919;-57
2023/12/14 06:16:26;;;;;;;;;;;;;;;23.53;33.17;101331.06;4230429;28;19919;-57
2023/12/14 06:18:27;;;;;;;;;;;;;;;23.54;33.20;101343.53;4230823;28;20294;-57
2023/12/14 06:20:29;;;;;;;;;;;;;;;23.53;33.08;101349.84;4230492;28;19924;-57
2023/12/14 06:22:30;;;;;;;;;;;;;;;23.51;32.95;101357.19;4230721;28;19927;-57
2023/12/14 06:24:32;;;;;;;;;;;;;;;23.48;33.22;101366.34;4230547;28;19919;-57
2023/12/14 06:26:34;;;;;;;;;;;;;;;23.50;32.99;101368.88;4230409;28;19919;-57
2023/12/14 06:28:35;;;;;;;;;;;;;;;23.53;33.08;101372.19;4229408;28;19927;-57
2023/12/14 06:30:37;;;;;;;;;;;;;;;23.58;32.91;101372.66;4230465;28;20321;-57
2023/12/14 06:32:39;;;;;;;;;;;;;;;23.63;33.23;101379.50;4230521;28;19928;-57
2023/12/14 06:34:41;;;;;;;;;;;;;;;23.62;32.90;101384.00;4230416;28;19920;-58
2023/12/14 06:36:44;;;;;;;;;;;;;;;23.55;32.98;101382.78;4230385;28;19965;-57
2023/12/14 06:38:46;;;;;;;;;;;;;;;23.60;32.98;101391.34;4230455;28;19926;-57
2023/12/14 06:40:47;;;;;;;;;;;;;;;23.58;33.10;101404.88;4229944;28;19920;-57
2023/12/14 06:42:49;;;;;;;;;;;;;;;23.56;33.03;101412.22;4229128;28;19931;-57
2023/12/14 06:44:51;;;;;;;;;;;;;;;23.55;33.10;101415.88;4230451;28;19998;-57
2023/12/14 06:46:53;;;;;;;;;;;;;;;23.52;33.13;101418.78;4232785;28;19931;-56
2023/12/14 06:48:55;;;;;;;;;;;;;;;23.51;33.34;101419.75;4233935;28;19920;-56
2023/12/14 06:50:57;;;;;;;;;;;;;;;23.53;32.92;101431.25;4233767;28;19926;-56
2023/12/14 06:52:58;;;;;;;;;;;;;;;23.57;33.28;101437.22;4233972;28;20356;-57
2023/12/14 06:55:00;;;;;;;;;;;;;;;23.58;32.85;101444.31;4233315;28;20019;-57
2023/12/14 06:57:01;;;;;;;;;;;;;;;23.58;33.22;101450.53;4233897;28;19926;-57
2023/12/14 06:59:03;;;;;;;;;;;;;;;23.57;32.85;101456.91;4233573;28;20011;-57
2023/12/14 07:01:05;;;;;;;;;;;;;;;23.57;32.84;101462.25;4233717;28;19946;-58
2023/12/14 07:03:06;;;;;;;;;;;;;;;23.58;32.96;101460.41;4233727;28;19924;-57
2023/12/14 07:05:08;;;;;;;;;;;;;;;23.56;32.68;101468.59;4233726;28;19919;-57
2023/12/14 07:07:10;;;;;;;;;;;;;;;23.55;32.87;101466.03;4233751;28;19919;-57
2023/12/14 07:09:12;;;;;;;;;;;;;;;23.54;33.24;101467.03;4233274;27;19919;-57
2023/12/14 07:11:13;;;;;;;;;;;;;;;23.52;33.05;101475.19;4233488;28;19960;-56
2023/12/14 07:13:15;;;;;;;;;;;;;;;23.52;32.97;101463.59;4233646;28;19961;-56
2023/12/14 07:15:16;;;;;;;;;;;;;;;23.55;33.04;101477.63;4233329;28;19946;-56
2023/12/14 07:17:18;;;;;;;;;;;;;;;23.56;32.89;101481.16;4233510;28;19919;-56
2023/12/14 07:19:20;;;;;;;;;;;;;;;23.58;32.98;101487.28;4233197;28;20279;-57
2023/12/14 07:21:22;;;;;;;;;;;;;;;23.58;32.73;101492.66;4233248;28;19919;-56
2023/12/14 07:23:23;;;;;;;;;;;;;;;23.59;32.83;101502.41;4232808;28;20357;-57
2023/12/14 07:25:25;;;;;;;;;;;;;;;23.56;32.97;101499.94;4233326;28;19924;-56
2023/12/14 07:27:27;;;;;;;;;;;;;;;23.54;32.66;101504.63;4233020;28;19924;-57
2023/12/14 07:29:28;;;;;;;;;;;;;;;23.55;32.72;101506.28;4233193;28;19919;-57
2023/12/14 07:31:30;;;;;;;;;;;;;;;23.53;32.92;101510.94;4233333;28;20297;-57
2023/12/14 07:33:31;;;;;;;;;;;;;;;23.51;32.93;101513.72;4233218;28;20145;-57
2023/12/14 07:35:33;;;;;;;;;;;;;;;23.54;33.23;101521.56;4233292;28;19924;-56
2023/12/14 07:37:35;;;;;;;;;;;;;;;23.56;32.74;101534.88;4232824;28;19931;-56
2023/12/14 07:39:36;;;;;;;;;;;;;;;23.58;32.95;101538.28;4233014;28;19920;-56
2023/12/14 07:41:38;;;;;;;;;;;;;;;23.63;32.83;101546.00;4232810;28;19919;-56
2023/12/14 07:43:39;;;;;;;;;;;;;;;23.63;33.01;101548.69;4233169;28;20014;-57
2023/12/14 07:45:41;;;;;;;;;;;;;;;23.62;33.01;101553.19;4232984;28;20006;-56
2023/12/14 07:47:42;;;;;;;;;;;;;;;23.61;33.04;101556.88;4233087;28;19973;-55
2023/12/14 07:49:44;;;;;;;;;;;;;;;23.63;32.95;101559.41;4232777;28;20027;-57
2023/12/14 07:51:46;;;;;;;;;;;;;;;23.61;33.00;101571.13;4232943;28;20271;-56
2023/12/14 07:53:48;;;;;;;;;;;;;;;23.61;33.09;101571.13;4232355;28;19920;-57
2023/12/14 07:55:49;;;;;;;;;;;;;;;23.59;32.88;101573.06;4232960;28;19924;-57
2023/12/14 07:57:51;;;;;;;;;;;;;;;23.61;33.13;101581.88;4232044;28;20299;-57
2023/12/14 07:59:52;;;;;;;;;;;;;;;23.63;32.70;101586.28;4232936;28;19919;-57
2023/12/14 08:01:54;;;;;;;;;;;;;;;23.64;32.58;101588.84;4232828;28;19998;-57
2023/12/14 08:03:55;;;;;;;;;;;;;;;23.66;32.99;101594.06;4232480;28;19947;-57
2023/12/14 08:05:57;;;;;;;;;;;;;;;23.67;32.95;101599.34;4232660;28;19920;-57
2023/12/14 08:07:59;;;;;;;;;;;;;;;23.68;32.73;101606.44;4232254;28;20386;-59
2023/12/14 08:10:01;;;;;;;;;;;;;;;23.67;32.63;101606.53;4232678;28;19927;-57
2023/12/14 08:12:02;;;;;;;;;;;;;;;23.64;32.94;101607.63;4232627;28;19945;-57
2023/12/14 08:14:04;;;;;;;;;;;;;;;23.63;33.12;101610.44;4232674;28;19942;-57
2023/12/14 08:16:06;;;;;;;;;;;;;;;23.59;33.06;101617.88;4232465;28;19931;-57
2023/12/14 08:18:08;;;;;;;;;;;;;;;23.58;32.96;101619.69;4232690;28;19989;-57
2023/12/14 08:20:11;;;;;;;;;;;;;;;23.58;33.12;101625.06;4232297;28;19934;-57
2023/12/14 08:22:15;;;;;;;;;;;;;;;23.59;33.06;101628.63;4232081;28;19919;-57
2023/12/14 08:24:16;;;;;;;;;;;;;;;23.60;33.06;101636.56;4232023;28;20002;-57
2023/12/14 08:26:18;;;;;;;;;;;;;;;23.63;32.94;101638.13;4231026;28;19919;-57
2023/12/14 08:28:19;;;;;;;;;;;;;;;23.64;32.58;101641.69;4232339;27;19923;-57
2023/12/14 08:30:21;;;;;;;;;;;;;;;23.66;32.74;101645.97;4232393;28;19919;-57
2023/12/14 08:32:22;;;;;;;;;;;;;;;23.65;32.96;101648.78;4232376;27;19926;-57
2023/12/14 08:34:27;;;;;;;;;;;;;;;23.61;32.85;101662.44;4232203;28;19927;-58
2023/12/14 08:36:29;;;;;;;;;;;;;;;23.59;32.88;101664.38;4231920;28;19926;-57
2023/12/14 08:38:31;;;;;;;;;;;;;;;23.56;32.79;101664.63;4232114;28;19923;-57
2023/12/14 08:40:32;;;;;;;;;;;;;;;23.53;33.00;101670.22;4232134;28;19943;-57
2023/12/14 08:42:34;;;;;;;;;;;;;;;23.52;32.50;101663.13;4231726;28;19919;-57
2023/12/14 08:44:38;;;;;;;;;;;;;;;23.54;32.67;101671.94;4231971;28;20398;-57
2023/12/14 08:46:43;;;;;;;;;;;;;;;23.57;32.89;101670.84;4231897;28;20024;-57
2023/12/14 08:48:45;;;;;;;;;;;;;;;23.57;32.71;101682.44;4230675;28;19924;-57
2023/12/14 08:50:47;;;;;;;;;;;;;;;23.58;32.72;101681.44;4231572;28;19923;-57
2023/12/14 08:52:48;;;;;;;;;;;;;;;23.59;32.64;101693.91;4231757;28;19920;-56
2023/12/14 08:54:50;;;;;;;;;;;;;;;23.62;32.47;101679.38;4232142;27;20375;-57
2023/12/14 08:56:52;;;;;;;;;;;;;;;23.65;32.79;101687.22;4231679;28;19951;-57
2023/12/14 08:58:53;;;;;;;;;;;;;;;23.69;32.52;101699.44;4231621;28;19920;-56
2023/12/14 09:00:55;;;;;;;;;;;;;;;23.66;32.08;101688.94;4231773;28;20421;-57
2023/12/14 09:02:56;;;;;;;;;;;;;;;23.65;32.29;101700.66;4231583;28;19920;-57
2023/12/14 09:04:58;;;;;;;;;;;;;;;23.67;32.68;101697.84;4231275;28;19935;-57
2023/12/14 09:06:59;;;;;;;;;;;;;;;23.69;32.58;101698.59;4230066;28;19927;-56
2023/12/14 09:09:02;;;;;;;;;;;;;;;23.70;32.48;101701.16;4231385;28;19958;-57
2023/12/14 09:11:04;;;;;;;;;;;;;;;23.73;32.37;101708.13;4231573;28;20370;-57
2023/12/14 09:13:05;;;;;;;;;;;;;;;23.76;32.18;101718.66;4231537;28;20422;-56
2023/12/14 09:15:07;;;;;;;;;;;;;;;23.79;32.39;101721.09;4231416;28;19934;-57
2023/12/14 09:17:09;;;;;;;;;;;;;;;23.78;32.17;101724.78;4231400;28;19927;-57
2023/12/14 09:19:10;;;;;;;;;;;;;;;23.79;32.47;101725.63;4231134;28;19924;-57
2023/12/14 09:21:12;;;;;;;;;;;;;;;23.75;32.05;101725.84;4231058;28;20389;-57
2023/12/14 09:23:13;;;;;;;;;;;;;;;23.71;32.50;101731.56;4231297;28;19962;-57
2023/12/14 09:25:15;;;;;;;;;;;;;;;23.69;32.17;101733.50;4231344;28;20393;-57
2023/12/14 09:27:17;;;;;;;;;;;;;;;23.70;32.48;101740.59;4231359;28;20267;-56
2023/12/14 09:29:18;;;;;;;;;;;;;;;23.71;32.33;101748.53;4231325;28;20259;-57
2023/12/14 09:31:20;;;;;;;;;;;;;;;23.72;32.23;101736.81;4231255;28;19923;-57
2023/12/14 09:33:21;;;;;;;;;;;;;;;23.74;32.31;101744.75;4230678;28;19928;-56
2023/12/14 09:35:23;;;;;;;;;;;;;;;23.74;32.12;101753.69;4231101;28;20283;-57
2023/12/14 09:37:25;;;;;;;;;;;;;;;23.67;32.25;101747.06;4230980;28;19930;-57
2023/12/14 09:39:27;;;;;;;;;;;;;;;23.75;32.06;101760.75;4231110;28;19945;-57
2023/12/14 09:41:29;;;;;;;;;;;;;;;23.73;32.28;101762.72;4231146;28;19973;-57
2023/12/14 09:43:31;;;;;;;;;;;;;;;23.69;32.09;101763.91;4231093;28;20306;-57
2023/12/14 09:45:33;;;;;;;;;;;;;;;23.68;32.23;101770.28;4230901;28;19919;-56
2023/12/14 09:47:35;;;;;;;;;;;;;;;23.66;32.21;101772.19;4230804;28;20398;-56
2023/12/14 09:49:38;;;;;;;;;;;;;;;23.65;32.13;101778.53;4230507;28;19927;-57
2023/12/14 09:51:40;;;;;;;;;;;;;;;23.66;32.16;101777.56;4230755;28;20014;-56
2023/12/14 09:53:42;;;;;;;;;;;;;;;23.68;32.37;101788.19;4230813;28;20014;-57
2023/12/14 09:55:44;;;;;;;;;;;;;;;23.71;32.07;101785.28;4230953;28;19920;-56
2023/12/14 09:57:45;;;;;;;;;;;;;;;23.71;32.22;101786.13;4230716;28;19923;-56
2023/12/14 09:59:53;;;;;;;;;;;;;;;23.69;32.24;101782.69;4230856;28;20006;-57
2023/12/14 10:02:13;;;;;;;;;;;;;;;23.68;32.08;101796.25;4229719;27;20022;-55
2023/12/14 10:04:16;;;;;;;;;;;;;;;23.69;32.27;101797.97;4228705;27;19919;-56
2023/12/14 10:06:18;;;;;;;;;;;;;;;23.67;32.17;101803.47;4230537;28;19973;-50
2023/12/14 10:08:21;;;;;;;;;;;;;;;23.65;31.85;101807.25;4230467;28;20018;-52
2023/12/14 10:10:28;;;;;;;;;;;;;;;23.61;31.87;101810.13;4230904;28;19924;-56
2023/12/14 10:12:30;;;;;;;;;;;;;;;23.61;31.72;101814.66;4230672;28;19942;-57
2023/12/14 10:14:31;;;;;;;;;;;;;;;23.44;32.95;101813.22;4230481;28;19919;-56
2023/12/14 10:16:33;;;;;;;;;;;;;;;23.25;32.31;101816.38;4230556;28;19926;-54
2023/12/14 10:18:35;;;;;;;;;;;;;;;23.08;32.95;101814.88;4230033;28;19957;-54
2023/12/14 10:20:37;;;;;;;;;;;;;;;23.01;32.65;101813.59;4229894;28;19919;-56
2023/12/14 10:22:38;;;;;;;;;;;;;;;23.00;31.85;101827.97;4230284;28;19924;-56
2023/12/14 10:24:42;;;;;;;;;;;;;;;22.83;32.63;101821.09;4230701;28;19920;-56